Duncan, Michigan
Current Conditions -  °F | °C
As of 3:14 AM on Thursday 18 Dec 2014 (Local Time) from KTTF Reporting Station
Overcast Overcast  
Wind Chill: 21°   Ceiling: 2700
Heat Index: 30°   Visibility: 10mi
Dew Point: 21°   Wind: 12mph
Humidity: 69%   Direction: 280°W
Pressure: 30.19"   Gusts: NA
Location:  41.9654°N, 83.6707°W
Report Text: KTTF 180814Z AUTO 28010KT 10SM OVC027 M01/M06 A3019 RMK AO2
Loading
Personal Weather Stations






























Interactive Weather Map New forecast layout! Learn more

10-Day Weather Forecast

Advertisements
Track Severe Weather on mobile